Time;durP1;ratioP1;P1;durP2;ratioP2;P2;SDS_P1;SDS_P2;PMS_P1;PMS_P2;Temp;Humidity;BMP_temperature;BMP_pressure;BME280_temperature;BME280_humidity;BME280_pressure;Samples;Min_cycle;Max_cycle;Signal;HPM_P1;HPM_P2
2022/01/13 00:01:27;;;;;;;129.05;48.22;;;;;;;0.41;100.00;102477.34;5017791;28;20036;-84
2022/01/13 00:03:52;;;;;;;127.57;47.53;;;;;;;0.48;100.00;102470.66;5018416;28;20022;-85
2022/01/13 00:06:17;;;;;;;136.63;49.33;;;;;;;0.38;100.00;102477.19;5019061;28;20036;-84
2022/01/13 00:08:43;;;;;;;130.68;48.97;;;;;;;0.34;100.00;102481.41;5017989;28;20025;-85
2022/01/13 00:11:08;;;;;;;128.25;47.20;;;;;;;0.36;100.00;102479.72;5018796;28;20168;-84
2022/01/13 00:13:46;;;;;;;136.82;48.65;;;;;;;0.40;100.00;102488.69;5017672;28;20029;-84
2022/01/13 00:16:38;;;;;;;140.20;47.00;;;;;;;0.52;100.00;102496.25;5019814;28;20022;-85
2022/01/13 00:19:17;;;;;;;137.95;49.28;;;;;;;0.41;100.00;102495.75;5018392;28;20033;-84
2022/01/13 00:21:58;;;;;;;133.77;47.80;;;;;;;0.37;100.00;102497.31;5019659;28;20493;-84
2022/01/13 00:24:24;;;;;;;131.35;47.10;;;;;;;0.49;100.00;102504.88;5019019;28;20095;-85
2022/01/13 00:26:49;;;;;;;139.82;46.85;;;;;;;0.57;100.00;102504.38;5017381;28;20030;-84
2022/01/13 00:29:20;;;;;;;138.63;47.90;;;;;;;0.46;100.00;102496.88;5017933;28;20090;-84
2022/01/13 00:31:46;;;;;;;132.00;45.05;;;;;;;0.41;100.00;102493.13;5016415;28;20030;-84
2022/01/13 00:34:11;;;;;;;131.70;45.08;;;;;;;0.44;100.00;102488.00;5016555;28;20022;-83
2022/01/13 00:36:39;;;;;;;131.73;48.05;;;;;;;0.44;100.00;102488.91;5018587;28;20026;-85
2022/01/13 00:39:06;;;;;;;139.98;47.05;;;;;;;0.38;100.00;102487.72;5018785;28;20454;-84
2022/01/13 00:41:32;;;;;;;136.38;46.85;;;;;;;0.33;100.00;102491.03;5016622;28;20022;-84
2022/01/13 00:43:59;;;;;;;138.70;44.38;;;;;;;0.39;100.00;102489.50;5018083;28;20022;-85
2022/01/13 00:46:27;;;;;;;128.57;44.85;;;;;;;0.43;100.00;102494.09;5017242;28;20108;-84
2022/01/13 00:48:54;;;;;;;133.02;44.03;;;;;;;0.46;100.00;102499.50;5017365;28;20099;-85
2022/01/13 00:51:22;;;;;;;124.10;44.25;;;;;;;0.45;100.00;102510.84;5018686;28;20116;-85
2022/01/13 00:53:49;;;;;;;141.52;46.97;;;;;;;0.36;100.00;102510.41;5017559;28;20049;-84
2022/01/13 00:56:14;;;;;;;134.90;46.08;;;;;;;0.33;100.00;102512.06;5018942;28;20032;-85
2022/01/13 00:58:39;;;;;;;123.25;43.70;;;;;;;0.49;100.00;102511.91;5019145;28;20086;-85
2022/01/13 01:01:07;;;;;;;130.77;45.83;;;;;;;0.41;100.00;102499.25;5016306;28;20109;-84
2022/01/13 01:03:34;;;;;;;133.70;41.65;;;;;;;0.40;100.00;102491.31;5014507;28;20021;-83
2022/01/13 01:06:00;;;;;;;127.82;41.03;;;;;;;0.50;100.00;102498.81;5015904;28;20450;-85
2022/01/13 01:08:26;;;;;;;124.40;41.38;;;;;;;0.41;100.00;102498.38;5017602;28;20022;-84
2022/01/13 01:10:54;;;;;;;133.30;44.13;;;;;;;0.39;100.00;102505.25;5020844;28;20036;-84
2022/01/13 01:13:25;;;;;;;133.63;43.28;;;;;;;0.27;100.00;102495.97;5021453;28;20036;-84
2022/01/13 01:15:54;;;;;;;134.75;42.28;;;;;;;0.49;100.00;102496.13;5020072;28;20018;-84
2022/01/13 01:26:40;;;;;;;145.75;42.45;;;;;;;0.34;100.00;102515.56;5021777;28;20497;-84
2022/01/13 01:31:36;;;;;;;139.55;41.15;;;;;;;0.48;100.00;102525.84;5021448;28;20034;-85
2022/01/13 01:36:47;;;;;;;132.05;40.13;;;;;;;0.43;100.00;102533.53;5021189;28;20111;-85
2022/01/13 01:39:13;;;;;;;139.57;41.28;;;;;;;0.44;100.00;102530.06;5016806;28;20049;-83
2022/01/13 01:41:44;;;;;;;139.85;40.35;;;;;;;0.38;100.00;102530.69;5022003;28;20021;-84
2022/01/13 01:44:13;;;;;;;147.98;42.35;;;;;;;0.37;100.00;102535.84;5021681;28;20372;-86
2022/01/13 01:46:42;;;;;;;137.05;40.75;;;;;;;0.43;100.00;102528.28;5020476;28;20030;-86
2022/01/13 01:49:20;;;;;;;160.80;45.33;;;;;;;0.28;100.00;102526.72;5019991;28;20030;-85
2022/01/13 01:51:49;;;;;;;152.25;43.13;;;;;;;0.31;100.00;102512.81;5020508;28;20022;-85
2022/01/13 01:54:14;;;;;;;157.35;44.75;;;;;;;0.27;100.00;102521.34;5021486;28;20022;-86
2022/01/13 01:56:41;;;;;;;135.60;39.65;;;;;;;0.32;100.00;102518.13;5022500;28;20053;-86
2022/01/13 01:59:08;;;;;;;128.95;39.63;;;;;;;0.28;100.00;102518.81;5016087;28;20032;-85
2022/01/13 02:01:34;;;;;;;129.63;37.78;;;;;;;0.21;100.00;102517.59;5016384;28;20022;-85
2022/01/13 02:03:59;;;;;;;125.93;37.85;;;;;;;0.40;100.00;102512.34;5016431;28;20075;-85
2022/01/13 02:06:25;;;;;;;128.32;36.28;;;;;;;0.30;100.00;102517.16;5015110;28;20083;-85
2022/01/13 02:08:50;;;;;;;121.28;36.08;;;;;;;0.25;100.00;102521.28;5016250;28;20022;-85
2022/01/13 02:11:15;;;;;;;125.78;35.58;;;;;;;0.39;100.00;102497.38;5016783;28;20046;-85
2022/01/13 02:13:48;;;;;;;113.70;35.80;;;;;;;0.38;100.00;102492.97;5016918;28;20386;-84
2022/01/13 02:16:37;;;;;;;124.05;36.58;;;;;;;0.27;100.00;102493.34;5016221;28;20029;-86
2022/01/13 02:18:59;;;;;;;135.23;37.47;;;;;;;0.30;100.00;102484.72;5016698;28;20030;-84
2022/01/13 02:21:26;;;;;;;127.45;36.70;;;;;;;0.21;100.00;102487.78;5014225;28;20030;-85
2022/01/13 02:23:53;;;;;;;126.72;35.72;;;;;;;0.22;100.00;102465.94;5015268;28;20402;-84
2022/01/13 02:26:18;;;;;;;129.40;36.90;;;;;;;0.23;100.00;102470.38;5016671;28;20048;-85
2022/01/13 02:28:44;;;;;;;120.80;35.83;;;;;;;0.33;100.00;102469.09;5015254;28;20483;-84
2022/01/13 02:31:11;;;;;;;140.82;38.70;;;;;;;0.24;100.00;102466.00;5016321;28;20040;-85
2022/01/13 02:33:37;;;;;;;142.75;38.15;;;;;;;0.24;100.00;102463.38;5016548;28;20042;-84
2022/01/13 02:36:04;;;;;;;130.75;38.42;;;;;;;0.22;100.00;102464.22;5016677;28;20049;-84
2022/01/13 02:38:29;;;;;;;135.18;38.90;;;;;;;0.30;100.00;102474.19;5015490;28;20030;-83
2022/01/13 02:40:56;;;;;;;137.68;37.85;;;;;;;0.25;100.00;102476.63;5016402;28;20022;-84
2022/01/13 02:43:24;;;;;;;129.48;38.03;;;;;;;0.26;100.00;102480.16;5016468;28;20072;-84
2022/01/13 02:48:30;;;;;;;137.40;39.15;;;;;;;0.24;100.00;102473.91;5016575;28;20025;-85
2022/01/13 02:51:00;;;;;;;134.30;38.47;;;;;;;0.29;100.00;102478.56;5016489;28;20494;-84
2022/01/13 02:53:26;;;;;;;132.55;38.83;;;;;;;0.26;100.00;102474.91;5015375;28;20034;-84
2022/01/13 02:55:56;;;;;;;136.93;37.70;;;;;;;0.31;100.00;102476.03;5016468;28;20102;-84
2022/01/13 02:58:22;;;;;;;131.07;37.83;;;;;;;0.38;100.00;102471.94;5015585;28;20018;-85
2022/01/13 03:00:47;;;;;;;136.90;37.67;;;;;;;0.21;100.00;102469.38;5016425;28;20028;-84
2022/01/13 03:03:13;;;;;;;133.98;37.97;;;;;;;0.25;100.00;102468.72;5015156;28;20164;-85
2022/01/13 03:05:39;;;;;;;126.35;35.72;;;;;;;0.36;100.00;102461.34;5015092;28;20022;-84
2022/01/13 03:08:08;;;;;;;141.13;39.08;;;;;;;0.20;100.00;102467.59;5016554;28;20080;-84
2022/01/13 03:10:34;;;;;;;143.88;40.25;;;;;;;0.20;100.00;102459.72;5015754;28;20025;-84
2022/01/13 03:13:00;;;;;;;141.73;38.40;;;;;;;0.16;100.00;102453.41;5014904;28;20457;-84
2022/01/13 03:15:26;;;;;;;152.57;40.15;;;;;;;0.16;100.00;102449.88;5015069;28;20029;-84
2022/01/13 03:17:51;;;;;;;167.82;40.45;;;;;;;0.15;100.00;102448.09;5015235;28;20025;-84
2022/01/13 03:20:17;;;;;;;157.73;39.30;;;;;;;0.17;100.00;102446.44;5015106;28;20445;-83
2022/01/13 03:22:42;;;;;;;161.20;41.35;;;;;;;0.09;100.00;102439.09;5015093;28;20049;-85
2022/01/13 03:25:09;;;;;;;161.98;42.97;;;;;;;0.09;100.00;102438.19;5015612;28;20032;-84
2022/01/13 03:27:35;;;;;;;206.50;45.05;;;;;;;0.05;100.00;102441.50;5015854;28;20118;-82
2022/01/13 03:30:06;;;;;;;200.82;46.45;;;;;;;0.07;100.00;102435.47;5015152;28;20372;-84
2022/01/13 03:32:33;;;;;;;187.98;45.80;;;;;;;0.13;100.00;102439.25;5015624;28;20034;-85
2022/01/13 03:34:59;;;;;;;204.10;49.40;;;;;;;0.07;100.00;102446.00;5015639;28;20471;-84
2022/01/13 03:37:24;;;;;;;205.05;47.45;;;;;;;0.05;100.00;102442.38;5016599;28;20032;-84
2022/01/13 03:39:50;;;;;;;195.27;47.60;;;;;;;0.10;100.00;102440.88;5016155;28;20026;-85
2022/01/13 03:42:15;;;;;;;244.07;48.53;;;;;;;0.03;100.00;102428.25;5014795;28;20066;-84
2022/01/13 03:44:40;;;;;;;195.55;47.10;;;;;;;0.08;100.00;102437.25;5015387;28;20040;-84
2022/01/13 03:47:06;;;;;;;193.57;47.90;;;;;;;0.19;100.00;102431.63;5018826;28;20037;-84
2022/01/13 03:49:32;;;;;;;191.95;46.47;;;;;;;0.17;100.00;102435.91;5016938;28;20026;-85
2022/01/13 03:52:17;;;;;;;195.85;45.50;;;;;;;0.09;100.00;102427.66;5017185;28;20025;-84
2022/01/13 03:55:23;;;;;;;189.73;45.13;;;;;;;0.13;100.00;102423.47;5016912;28;20065;-85
2022/01/13 03:58:32;;;;;;;195.32;45.67;;;;;;;0.17;100.00;102418.44;5017525;28;20429;-83
2022/01/13 04:01:28;;;;;;;181.13;41.83;;;;;;;0.16;100.00;102431.47;5013467;28;20471;-83
2022/01/13 04:03:54;;;;;;;181.70;42.25;;;;;;;0.22;100.00;102434.41;5013472;28;20057;-85
2022/01/13 04:06:22;;;;;;;176.38;43.05;;;;;;;0.20;100.00;102425.56;5014041;28;20026;-83
2022/01/13 04:08:49;;;;;;;224.55;48.50;;;;;;;0.15;100.00;102425.34;5014251;28;20036;-84
2022/01/13 04:11:17;;;;;;;206.13;45.00;;;;;;;0.16;100.00;102426.22;5013800;28;20056;-83
2022/01/13 04:13:55;;;;;;;221.25;48.35;;;;;;;0.13;100.00;102420.84;5015563;28;20394;-83
2022/01/13 04:16:27;;;;;;;266.63;50.50;;;;;;;0.15;100.00;102429.69;5014308;28;20509;-83
2022/01/13 04:18:55;;;;;;;178.88;42.90;;;;;;;0.27;100.00;102425.03;5015937;28;20104;-83
2022/01/13 04:21:21;;;;;;;279.67;50.42;;;;;;;0.14;100.00;102413.03;5014306;28;20029;-84
2022/01/13 04:23:47;;;;;;;259.70;50.10;;;;;;;0.19;100.00;102414.16;5014058;28;20479;-84
2022/01/13 04:26:16;;;;;;;183.70;41.50;;;;;;;0.22;100.00;102411.66;5015541;28;20101;-84
2022/01/13 04:28:42;;;;;;;199.15;44.28;;;;;;;0.31;100.00;102403.31;5015666;28;20026;-84
2022/01/13 04:31:07;;;;;;;223.30;46.55;;;;;;;0.26;100.00;102404.81;5015389;28;20037;-83
2022/01/13 04:33:34;;;;;;;204.98;45.08;;;;;;;0.23;100.00;102399.44;5015463;28;20044;-84
2022/01/13 04:36:00;;;;;;;191.30;44.97;;;;;;;0.27;100.00;102398.75;5013935;28;20487;-83
2022/01/13 04:38:26;;;;;;;219.80;48.38;;;;;;;0.22;100.00;102392.38;5012800;28;20384;-82
2022/01/13 04:41:00;;;;;;;201.27;44.78;;;;;;;0.24;100.00;102395.06;5014551;28;20509;-83
2022/01/13 04:43:29;;;;;;;188.70;44.58;;;;;;;0.27;100.00;102389.94;5014913;28;20049;-83
2022/01/13 04:45:54;;;;;;;262.75;49.03;;;;;;;0.22;100.00;102387.13;5013629;28;20068;-83
2022/01/13 04:48:20;;;;;;;197.07;44.45;;;;;;;0.24;100.00;102390.72;5015489;28;20026;-83
2022/01/13 04:50:45;;;;;;;236.73;46.42;;;;;;;0.31;100.00;102387.53;5014481;28;20052;-83
2022/01/13 04:53:11;;;;;;;190.05;44.25;;;;;;;0.31;100.00;102387.53;5013963;28;20034;-82
2022/01/13 04:55:38;;;;;;;209.55;45.00;;;;;;;0.29;100.00;102398.81;5015201;28;20058;-84
2022/01/13 04:58:05;;;;;;;236.55;46.85;;;;;;;0.30;100.00;102400.63;5013874;28;20037;-84
2022/01/13 05:00:32;;;;;;;225.93;46.25;;;;;;;0.35;100.00;102400.81;5015497;28;20030;-83
2022/01/13 05:02:58;;;;;;;226.75;45.08;;;;;;;0.33;100.00;102401.66;5017438;28;20030;-83
2022/01/13 05:05:25;;;;;;;224.07;48.08;;;;;;;0.30;100.00;102395.34;5015888;28;20422;-83
2022/01/13 05:07:50;;;;;;;250.25;47.60;;;;;;;0.31;100.00;102403.31;5017647;28;20053;-83
2022/01/13 05:10:16;;;;;;;222.25;46.58;;;;;;;0.38;100.00;102403.59;5017623;28;20475;-84
2022/01/13 05:12:44;;;;;;;194.20;42.25;;;;;;;0.44;100.00;102403.88;5013916;28;20025;-84
2022/01/13 05:15:19;;;;;;;206.30;43.28;;;;;;;0.46;100.00;102407.50;5013849;28;20026;-84
2022/01/13 05:20:15;;;;;;;255.88;47.85;;;;;;;0.43;100.00;102412.59;5017247;28;20025;-84
2022/01/13 05:22:41;;;;;;;284.95;50.05;;;;;;;0.37;100.00;102417.56;5017478;28;20037;-84
2022/01/13 05:25:06;;;;;;;294.55;51.10;;;;;;;0.38;100.00;102411.50;5017587;28;20022;-83
2022/01/13 05:27:32;;;;;;;255.52;48.85;;;;;;;0.36;100.00;102418.41;5016198;28;20044;-83
2022/01/13 05:29:58;;;;;;;233.40;45.97;;;;;;;0.42;100.00;102413.41;5016618;28;20033;-84
2022/01/13 05:34:51;;;;;;;248.68;48.28;;;;;;;0.36;100.00;102408.78;5030290;28;20511;-74
2022/01/13 05:37:16;;;;;;;220.48;45.60;;;;;;;0.42;100.00;102410.78;5032501;28;20037;-75
2022/01/13 05:39:41;;;;;;;406.27;62.70;;;;;;;0.31;100.00;102413.81;5031239;28;20025;-74
2022/01/13 05:42:07;;;;;;;314.27;53.17;;;;;;;0.33;100.00;102393.78;5032603;28;20033;-74
2022/01/13 05:44:38;;;;;;;336.45;54.40;;;;;;;0.33;100.00;102385.91;5032205;28;20386;-74
2022/01/13 05:47:03;;;;;;;264.77;50.42;;;;;;;0.35;100.00;102371.91;5032313;28;20488;-73
2022/01/13 05:49:28;;;;;;;309.13;50.72;;;;;;;0.42;100.00;102380.16;5032205;28;20104;-73
2022/01/13 05:51:54;;;;;;;273.02;48.10;;;;;;;0.40;100.00;102370.41;5030977;28;20079;-73
2022/01/13 05:54:19;;;;;;;334.92;53.20;;;;;;;0.42;100.00;102368.72;5032472;28;20017;-73
2022/01/13 05:56:44;;;;;;;266.55;48.83;;;;;;;0.36;100.00;102364.09;5032311;28;20021;-73
2022/01/13 05:59:09;;;;;;;236.52;45.47;;;;;;;0.40;100.00;102360.78;5035653;28;20028;-73
2022/01/13 06:01:35;;;;;;;362.20;54.08;;;;;;;0.36;100.00;102355.31;5035988;28;20440;-73
2022/01/13 06:04:00;;;;;;;261.10;46.33;;;;;;;0.47;100.00;102350.53;5035817;28;20018;-73
2022/01/13 06:06:25;;;;;;;206.80;41.60;;;;;;;0.46;100.00;102357.56;5035566;28;20378;-73
2022/01/13 06:08:51;;;;;;;292.45;48.20;;;;;;;0.44;100.00;102356.56;5035492;28;20112;-73
2022/01/13 06:11:21;;;;;;;279.92;46.40;;;;;;;0.44;100.00;102360.09;5035642;28;20053;-73
2022/01/13 06:13:46;;;;;;;328.73;50.40;;;;;;;0.42;100.00;102359.13;5035508;28;20083;-73
2022/01/13 06:16:11;;;;;;;299.27;52.05;;;;;;;0.47;100.00;102366.31;5035545;28;20029;-73
2022/01/13 06:18:37;;;;;;;234.75;46.10;;;;;;;0.58;100.00;102356.28;5035510;28;20053;-73
2022/01/13 06:21:02;;;;;;;363.80;54.55;;;;;;;0.42;100.00;102352.97;5035201;28;20076;-73
2022/01/13 06:23:27;;;;;;;351.70;55.80;;;;;;;0.47;100.00;102355.78;5035524;28;20496;-73
2022/01/13 06:25:53;;;;;;;405.48;59.83;;;;;;;0.44;100.00;102357.47;5035029;28;20030;-74
2022/01/13 06:28:18;;;;;;;322.38;57.10;;;;;;;0.46;100.00;102356.63;5033823;28;20033;-74
2022/01/13 06:30:43;;;;;;;343.95;57.85;;;;;;;0.46;100.00;102360.19;5035023;28;20443;-73
2022/01/13 06:33:09;;;;;;;415.98;67.65;;;;;;;0.43;100.00;102363.56;5035565;28;20502;-73
2022/01/13 06:35:36;;;;;;;424.15;64.57;;;;;;;0.44;100.00;102359.19;5033743;28;20071;-73
2022/01/13 06:38:01;;;;;;;335.48;59.38;;;;;;;0.51;100.00;102361.28;5033542;28;20478;-73
2022/01/13 06:40:27;;;;;;;322.75;59.25;;;;;;;0.51;100.00;102363.91;5034743;28;20029;-73
2022/01/13 06:42:52;;;;;;;280.02;55.90;;;;;;;0.57;100.00;102368.53;5034859;28;20025;-73
2022/01/13 06:45:18;;;;;;;290.33;57.05;;;;;;;0.57;100.00;102383.44;5034674;28;20025;-73
2022/01/13 06:47:43;;;;;;;417.83;68.43;;;;;;;0.49;100.00;102370.81;5034934;28;20022;-73
2022/01/13 06:50:11;;;;;;;305.23;54.85;;;;;;;0.44;100.00;102373.22;5034506;28;20425;-73
2022/01/13 06:52:37;;;;;;;298.52;56.53;;;;;;;0.48;100.00;102384.81;5034487;28;20025;-73
2022/01/13 06:55:03;;;;;;;259.35;53.35;;;;;;;0.49;100.00;102386.56;5034717;28;20017;-73
2022/01/13 06:57:30;;;;;;;316.58;60.65;;;;;;;0.50;100.00;102384.84;5034556;28;20486;-73
2022/01/13 06:59:55;;;;;;;341.48;59.80;;;;;;;0.46;100.00;102381.22;5034729;28;20025;-73
2022/01/13 07:02:22;;;;;;;318.48;60.38;;;;;;;0.46;100.00;102382.94;5034514;28;20025;-73
2022/01/13 07:04:47;;;;;;;262.92;49.80;;;;;;;0.53;100.00;102380.66;5034705;28;20026;-74
2022/01/13 07:07:13;;;;;;;382.00;64.60;;;;;;;0.40;100.00;102378.28;5035007;28;20360;-73
2022/01/13 07:09:38;;;;;;;377.33;62.78;;;;;;;0.39;100.00;102390.53;5034787;28;20029;-74
2022/01/13 07:12:04;;;;;;;406.15;65.65;;;;;;;0.43;100.00;102396.84;5034937;28;20108;-74
2022/01/13 07:14:29;;;;;;;355.92;58.15;;;;;;;0.42;100.00;102398.56;5034929;28;20021;-74
2022/01/13 07:16:55;;;;;;;372.02;64.15;;;;;;;0.48;100.00;102400.56;5034780;28;20017;-73
2022/01/13 07:19:20;;;;;;;446.77;75.38;;;;;;;0.37;100.00;102397.44;5034551;28;20095;-74
2022/01/13 07:21:46;;;;;;;389.90;66.68;;;;;;;0.39;100.00;102397.50;5034556;28;20028;-74
2022/01/13 07:24:11;;;;;;;351.67;65.93;;;;;;;0.44;100.00;102409.13;5033037;28;20029;-73
2022/01/13 07:26:37;;;;;;;414.50;67.63;;;;;;;0.42;100.00;102408.16;5034624;28;20029;-73
2022/01/13 07:29:04;;;;;;;434.63;68.80;;;;;;;0.44;100.00;102409.13;5034257;28;20025;-74
2022/01/13 07:31:29;;;;;;;454.35;69.75;;;;;;;0.45;100.00;102410.94;5034108;28;20040;-73
2022/01/13 07:33:55;;;;;;;413.58;68.35;;;;;;;0.43;100.00;102405.63;5034083;28;20601;-74
2022/01/13 07:36:20;;;;;;;363.13;61.95;;;;;;;0.49;100.00;102412.00;5034085;28;20104;-73
2022/01/13 07:38:46;;;;;;;417.58;65.90;;;;;;;0.42;100.00;102416.03;5034288;28;20061;-74
2022/01/13 07:41:11;;;;;;;324.27;57.85;;;;;;;0.50;100.00;102409.44;5032800;28;20022;-73
2022/01/13 07:43:40;;;;;;;379.58;61.72;;;;;;;0.47;100.00;102406.66;5034399;28;20477;-73
2022/01/13 07:46:06;;;;;;;441.25;67.10;;;;;;;0.54;100.00;102415.75;5034106;28;20398;-73
2022/01/13 07:48:31;;;;;;;453.63;70.40;;;;;;;0.42;100.00;102414.31;5034559;28;20497;-74
2022/01/13 07:50:56;;;;;;;459.52;72.30;;;;;;;0.44;100.00;102425.81;5034440;28;20017;-74
2022/01/13 07:53:22;;;;;;;494.80;74.40;;;;;;;0.40;100.00;102422.97;5033954;28;20029;-73
2022/01/13 07:55:48;;;;;;;402.20;64.38;;;;;;;0.43;100.00;102426.66;5033882;28;20087;-73
2022/01/13 07:58:13;;;;;;;471.50;69.93;;;;;;;0.45;100.00;102429.34;5033784;28;20532;-74
2022/01/13 08:00:39;;;;;;;463.20;71.93;;;;;;;0.46;100.00;102428.53;5033848;28;20025;-73
2022/01/13 08:03:04;;;;;;;394.95;66.60;;;;;;;0.48;100.00;102420.69;5033725;28;20017;-73
2022/01/13 08:05:29;;;;;;;469.52;71.60;;;;;;;0.42;100.00;102419.59;5033933;28;20430;-74
2022/01/13 08:07:55;;;;;;;599.60;83.47;;;;;;;0.42;100.00;102426.56;5033637;28;20120;-74
2022/01/13 08:10:20;;;;;;;478.38;72.20;;;;;;;0.44;100.00;102424.91;5033519;28;20065;-73
2022/01/13 08:12:45;;;;;;;413.52;64.22;;;;;;;0.56;100.00;102429.84;5033540;28;20182;-74
2022/01/13 08:15:14;;;;;;;410.90;65.93;;;;;;;0.51;100.00;102431.38;5032472;28;20024;-73
2022/01/13 08:20:25;;;;;;;385.33;62.67;;;;;;;0.53;100.00;102445.47;5033009;28;20082;-74
2022/01/13 08:22:51;;;;;;;463.42;72.53;;;;;;;0.51;100.00;102434.00;5033647;28;20022;-73
2022/01/13 08:25:17;;;;;;;318.60;55.83;;;;;;;0.60;100.00;102444.03;5033637;28;20040;-73
2022/01/13 08:27:43;;;;;;;349.60;63.17;;;;;;;0.60;100.00;102450.19;5032572;28;20488;-73
2022/01/13 08:30:09;;;;;;;409.40;66.57;;;;;;;0.51;100.00;102448.03;5033264;28;20026;-74
2022/01/13 08:32:34;;;;;;;454.75;68.65;;;;;;;0.50;100.00;102448.88;5033037;28;20029;-73
2022/01/13 08:35:00;;;;;;;411.08;64.53;;;;;;;0.51;100.00;102445.41;5033247;28;20028;-74
2022/01/13 08:37:26;;;;;;;429.25;68.35;;;;;;;0.46;100.00;102446.94;5033121;28;20028;-73
2022/01/13 08:39:51;;;;;;;404.35;63.17;;;;;;;0.49;100.00;102441.78;5033343;28;20030;-73
2022/01/13 08:42:16;;;;;;;392.17;64.63;;;;;;;0.48;100.00;102442.63;5031879;28;20044;-74
2022/01/13 08:44:42;;;;;;;355.48;56.15;;;;;;;0.51;100.00;102442.78;5033618;28;20021;-73
2022/01/13 08:47:09;;;;;;;326.02;55.85;;;;;;;0.53;100.00;102440.22;5033046;28;20084;-73
2022/01/13 08:49:34;;;;;;;448.20;69.15;;;;;;;0.43;100.00;102450.31;5032998;28;20025;-73
2022/01/13 08:52:00;;;;;;;343.15;58.95;;;;;;;0.62;100.00;102450.28;5031721;28;20556;-73
2022/01/13 08:54:26;;;;;;;403.25;62.45;;;;;;;0.54;100.00;102456.06;5033301;28;20386;-73
2022/01/13 08:56:51;;;;;;;432.33;67.57;;;;;;;0.51;100.00;102448.03;5032989;28;20033;-74
2022/01/13 08:59:18;;;;;;;366.35;59.95;;;;;;;0.57;100.00;102451.78;5033117;28;20500;-74
2022/01/13 09:01:44;;;;;;;451.10;69.03;;;;;;;0.55;100.00;102464.84;5032877;28;20028;-74
2022/01/13 09:04:10;;;;;;;424.17;69.25;;;;;;;0.56;100.00;102471.91;5032819;28;20033;-74
2022/01/13 09:06:35;;;;;;;381.05;60.75;;;;;;;0.61;100.00;102467.78;5032904;28;20021;-73
2022/01/13 09:09:00;;;;;;;458.25;68.30;;;;;;;0.55;100.00;102473.63;5032876;28;20029;-74
2022/01/13 09:11:27;;;;;;;366.33;61.80;;;;;;;0.65;100.00;102467.06;5032856;28;20148;-74
2022/01/13 09:13:57;;;;;;;335.80;59.28;;;;;;;0.64;100.00;102469.66;5032780;28;20490;-74
2022/01/13 09:16:24;;;;;;;499.77;77.75;;;;;;;0.62;100.00;102466.06;5031521;28;20026;-73
2022/01/13 09:21:23;;;;;;;517.15;76.22;;;;;;;0.65;100.00;102466.16;5032690;28;20026;-74
2022/01/13 09:23:49;;;;;;;411.48;70.28;;;;;;;0.65;100.00;102467.06;5032682;28;20494;-74
2022/01/13 09:26:14;;;;;;;437.70;75.78;;;;;;;0.68;100.00;102466.31;5032985;28;20033;-74
2022/01/13 09:28:40;;;;;;;371.95;69.35;;;;;;;0.77;100.00;102472.00;5032923;28;20056;-73
2022/01/13 09:31:06;;;;;;;506.33;80.65;;;;;;;0.68;100.00;102473.31;5034671;28;20072;-73
2022/01/13 09:33:33;;;;;;;387.92;65.95;;;;;;;0.65;100.00;102471.44;5036393;28;20033;-74
2022/01/13 09:35:59;;;;;;;401.13;65.95;;;;;;;0.63;100.00;102457.31;5036498;28;20020;-74
2022/01/13 09:38:24;;;;;;;463.20;69.38;;;;;;;0.60;100.00;102462.44;5036458;28;20029;-74
2022/01/13 09:40:54;;;;;;;381.65;60.50;;;;;;;0.69;100.00;102468.13;5036373;28;20025;-73
2022/01/13 09:43:25;;;;;;;391.23;65.45;;;;;;;0.67;100.00;102469.81;5035116;28;20079;-74
2022/01/13 09:45:52;;;;;;;386.25;62.35;;;;;;;0.69;100.00;102464.59;5036270;28;20025;-73
2022/01/13 09:48:17;;;;;;;407.45;65.72;;;;;;;0.72;100.00;102457.72;5034963;28;20071;-74
2022/01/13 09:50:45;;;;;;;333.77;60.85;;;;;;;0.82;100.00;102458.19;5036233;28;20021;-74
2022/01/13 09:53:12;;;;;;;414.67;72.47;;;;;;;0.75;100.00;102457.88;5036152;28;20025;-74
2022/01/13 09:55:38;;;;;;;502.70;82.65;;;;;;;0.77;100.00;102460.59;5036113;28;20083;-74
2022/01/13 09:58:10;;;;;;;408.90;70.57;;;;;;;0.80;100.00;102462.47;5036053;28;20029;-74
2022/01/13 10:00:36;;;;;;;397.85;68.28;;;;;;;0.77;100.00;102458.84;5036277;28;20078;-73
2022/01/13 10:03:12;;;;;;;374.20;67.15;;;;;;;0.81;100.00;102456.34;5036051;28;20025;-73
2022/01/13 10:05:53;;;;;;;363.67;64.13;;;;;;;0.81;100.00;102445.84;5035896;28;20035;-73
2022/01/13 10:08:23;;;;;;;468.95;77.32;;;;;;;0.76;100.00;102449.16;5035943;28;20028;-73
2022/01/13 10:10:49;;;;;;;364.58;63.50;;;;;;;0.84;100.00;102451.25;5036029;28;20470;-74
2022/01/13 10:13:23;;;;;;;398.67;70.20;;;;;;;0.76;100.00;102449.16;5036036;28;20030;-73
2022/01/13 10:18:37;;;;;;;447.38;77.85;;;;;;;0.80;100.00;102449.31;5036252;28;20111;-74
2022/01/13 10:21:14;;;;;;;497.52;84.07;;;;;;;0.75;100.00;102456.97;5035607;28;20023;-74
2022/01/13 10:24:00;;;;;;;385.08;68.30;;;;;;;0.74;100.00;102448.22;5035609;28;20049;-73
2022/01/13 10:26:25;;;;;;;469.80;79.63;;;;;;;0.71;100.00;102452.41;5035526;28;20555;-74
2022/01/13 10:28:52;;;;;;;429.67;76.32;;;;;;;0.72;100.00;102447.22;5035502;28;20090;-74
2022/01/13 10:31:17;;;;;;;438.90;77.40;;;;;;;0.79;100.00;102448.41;5035356;28;20047;-74
2022/01/13 10:33:42;;;;;;;421.17;77.07;;;;;;;0.76;100.00;102446.53;5035445;28;20059;-74
2022/01/13 10:36:11;;;;;;;438.67;79.30;;;;;;;0.76;100.00;102449.16;5035643;28;20071;-74
2022/01/13 10:38:55;;;;;;;470.95;81.60;;;;;;;0.73;100.00;102454.28;5035357;28;20022;-74
2022/01/13 10:41:50;;;;;;;520.03;85.00;;;;;;;0.72;100.00;102441.94;5035237;28;20072;-74
2022/01/13 10:44:18;;;;;;;430.75;75.57;;;;;;;0.84;100.00;102435.47;5035488;28;20475;-74
2022/01/13 10:46:58;;;;;;;529.03;90.25;;;;;;;0.72;100.00;102436.69;5035161;28;20029;-74
2022/01/13 10:49:35;;;;;;;513.70;87.85;;;;;;;0.68;100.00;102434.75;5035347;28;20539;-74
2022/01/13 10:52:26;;;;;;;441.00;77.90;;;;;;;0.75;100.00;102438.56;5035077;28;20086;-74
2022/01/13 10:55:02;;;;;;;497.20;83.20;;;;;;;0.68;100.00;102433.84;5035040;28;20017;-74
2022/01/13 10:57:29;;;;;;;498.67;80.10;;;;;;;0.66;100.00;102434.72;5033770;28;20398;-74
2022/01/13 10:59:54;;;;;;;413.63;77.70;;;;;;;0.72;100.00;102434.06;5034936;28;20029;-74
2022/01/13 11:02:22;;;;;;;420.85;76.75;;;;;;;0.76;100.00;102428.13;5034947;28;20108;-74
2022/01/13 11:04:47;;;;;;;426.08;76.63;;;;;;;0.77;100.00;102423.78;5033479;28;20398;-73
2022/01/13 11:07:19;;;;;;;419.75;75.75;;;;;;;0.76;100.00;102417.63;5034793;28;20021;-73
2022/01/13 11:10:03;;;;;;;426.83;75.65;;;;;;;0.80;100.00;102420.38;5034653;28;20029;-73
2022/01/13 11:12:42;;;;;;;443.00;78.28;;;;;;;0.71;100.00;102415.59;5034641;28;20049;-74
2022/01/13 11:15:15;;;;;;;441.75;78.07;;;;;;;0.77;100.00;102413.25;5034649;28;20022;-75
2022/01/13 11:17:43;;;;;;;372.20;70.73;;;;;;;0.74;100.00;102403.50;5033381;28;20039;-73
2022/01/13 11:20:12;;;;;;;392.92;72.80;;;;;;;0.82;100.00;102410.81;5033231;28;20290;-74
2022/01/13 11:22:40;;;;;;;448.20;79.35;;;;;;;0.83;100.00;102403.00;5033204;28;20520;-74
2022/01/13 11:25:08;;;;;;;378.23;66.93;;;;;;;0.79;100.00;102398.44;5034366;28;20030;-74
2022/01/13 11:27:34;;;;;;;479.77;85.32;;;;;;;0.78;100.00;102391.38;5034331;28;20114;-73
2022/01/13 11:30:01;;;;;;;462.83;79.93;;;;;;;0.80;100.00;102396.72;5034283;28;20025;-74
2022/01/13 11:32:26;;;;;;;472.63;84.60;;;;;;;0.80;100.00;102400.22;5044890;22;20045;-83
2022/01/13 11:34:55;;;;;;;405.58;75.50;;;;;;;0.87;100.00;102404.03;4999536;28;20030;-82